Time;durP1;ratioP1;P1;durP2;ratioP2;P2;SDS_P1;SDS_P2;PMS_P1;PMS_P2;Temp;Humidity;BMP_temperature;BMP_pressure;BME280_temperature;BME280_humidity;BME280_pressure;Samples;Min_cycle;Max_cycle;Signal;HPM_P1;HPM_P2
2022/09/04 00:02:18;;;;;;;7.55;5.07;;;;;;;;;;4966845;29;20036;-77
2022/09/04 00:04:58;;;;;;;9.30;6.10;;;;;;;;;;4918626;29;20058;-81
2022/09/04 00:07:38;;;;;;;11.73;5.68;;;;;;;;;;4966674;29;20030;-78
2022/09/04 00:10:20;;;;;;;9.57;6.00;;;;;;;;;;4966726;29;20027;-80
2022/09/04 00:12:55;;;;;;;10.18;5.63;;;;;;;;;;4949424;29;20029;-78
2022/09/04 00:15:42;;;;;;;8.77;4.90;;;;;;;;;;4966655;29;20067;-80
2022/09/04 00:18:16;;;;;;;8.13;5.03;;;;;;;;;;4966452;29;20039;-78
2022/09/04 00:20:49;;;;;;;8.18;5.28;;;;;;;;;;4966434;29;20034;-86
2022/09/04 00:23:33;;;;;;;7.25;4.90;;;;;;;;;;4966597;29;20089;-84
2022/09/04 00:26:39;;;;;;;8.20;5.10;;;;;;;;;;4966652;29;20038;-83
2022/09/04 00:29:26;;;;;;;7.82;5.07;;;;;;;;;;4966528;28;20074;-83
2022/09/04 00:31:54;;;;;;;8.50;4.57;;;;;;;;;;4966120;29;20335;-79
2022/09/04 00:34:32;;;;;;;5.93;3.85;;;;;;;;;;4966367;29;20030;-81
2022/09/04 00:37:04;;;;;;;6.50;3.85;;;;;;;;;;4966002;29;20019;-81
2022/09/04 00:39:59;;;;;;;5.15;3.40;;;;;;;;;;4949168;29;20070;-81
2022/09/04 00:42:54;;;;;;;6.32;3.40;;;;;;;;;;4909048;29;20035;-83
2022/09/04 00:45:42;;;;;;;7.70;4.97;;;;;;;;;;4949104;29;20066;-82
2022/09/04 00:48:28;;;;;;;6.35;4.60;;;;;;;;;;4966135;29;20035;-83
2022/09/04 00:51:14;;;;;;;8.75;4.75;;;;;;;;;;4949308;29;20098;-83
2022/09/04 00:53:58;;;;;;;6.93;4.63;;;;;;;;;;4949635;29;20027;-82
2022/09/04 00:57:02;;;;;;;7.13;4.10;;;;;;;;;;4965872;29;20246;-83
2022/09/04 00:59:49;;;;;;;6.68;4.40;;;;;;;;;;4964539;28;20402;-83
2022/09/04 01:02:21;;;;;;;8.70;4.40;;;;;;;;;;4949231;29;20219;-82
2022/09/04 01:05:15;;;;;;;6.05;4.13;;;;;;;;;;4965887;29;20023;-83
2022/09/04 01:07:55;;;;;;;6.85;4.35;;;;;;;;;;4965821;29;20035;-82
2022/09/04 01:10:48;;;;;;;7.13;4.55;;;;;;;;;;4965731;29;20027;-81
2022/09/04 01:13:35;;;;;;;7.78;4.90;;;;;;;;;;4965739;29;20027;-82
2022/09/04 01:16:09;;;;;;;10.75;5.43;;;;;;;;;;4965747;29;20090;-83
2022/09/04 01:18:55;;;;;;;6.85;4.90;;;;;;;;;;4965608;29;20051;-82
2022/09/04 01:21:29;;;;;;;8.52;5.05;;;;;;;;;;4965594;29;20023;-83
2022/09/04 01:24:17;;;;;;;8.50;4.93;;;;;;;;;;4965599;29;20019;-81
2022/09/04 01:27:15;;;;;;;7.90;4.95;;;;;;;;;;4965536;29;20027;-83
2022/09/04 01:30:10;;;;;;;6.88;4.72;;;;;;;;;;4965513;29;20374;-83
2022/09/04 01:33:00;;;;;;;7.07;4.90;;;;;;;;;;4965290;29;20039;-83
2022/09/04 01:35:56;;;;;;;6.25;4.25;;;;;;;;;;4965541;29;20053;-82
2022/09/04 01:38:22;;;;;;;;;;;;;;;;;;4965935;29;20035;-83
2022/09/04 01:40:59;;;;;;;7.80;4.75;;;;;;;;;;4965567;29;19957;-83
2022/09/04 01:43:24;;;;;;;7.93;4.40;;;;;;;;;;4965318;29;20031;-83
2022/09/04 01:46:08;;;;;;;8.32;4.93;;;;;;;;;;4965400;29;20023;-83
2022/09/04 01:48:45;;;;;;;6.93;4.57;;;;;;;;;;4965272;29;20027;-83
2022/09/04 01:51:43;;;;;;;6.82;4.70;;;;;;;;;;4965144;29;20139;-82
2022/09/04 01:54:15;;;;;;;7.10;4.50;;;;;;;;;;4950969;29;20034;-83
2022/09/04 01:56:46;;;;;;;8.20;4.72;;;;;;;;;;4969283;29;20019;-81
2022/09/04 01:59:26;;;;;;;8.63;4.57;;;;;;;;;;4952108;29;20272;-82
2022/09/04 02:02:00;;;;;;;5.20;3.78;;;;;;;;;;4969099;29;20046;-82
2022/09/04 02:04:38;;;;;;;6.28;3.90;;;;;;;;;;4968891;29;20031;-79
2022/09/04 02:07:31;;;;;;;9.88;3.58;;;;;;;;;;4969208;29;20304;-79
2022/09/04 02:10:07;;;;;;;6.22;3.40;;;;;;;;;;4968765;29;20311;-82
2022/09/04 02:12:50;;;;;;;5.18;2.92;;;;;;;;;;4951899;29;20027;-81
2022/09/04 02:15:41;;;;;;;5.70;3.30;;;;;;;;;;4968773;29;20078;-83
2022/09/04 02:18:36;;;;;;;7.07;3.50;;;;;;;;;;4968831;29;20135;-81
2022/09/04 02:21:09;;;;;;;6.40;3.40;;;;;;;;;;4968668;29;20046;-81
2022/09/04 02:23:38;;;;;;;5.40;3.30;;;;;;;;;;4951634;29;20027;-79
2022/09/04 02:26:09;;;;;;;5.82;3.15;;;;;;;;;;4968716;29;20027;-82
2022/09/04 02:28:54;;;;;;;5.82;3.20;;;;;;;;;;4968407;29;20081;-77
2022/09/04 02:31:31;;;;;;;;;;;;;;;;;;4951631;29;20034;-77
2022/09/04 02:34:10;;;;;;;6.10;3.42;;;;;;;;;;4968854;29;19911;-81
2022/09/04 02:36:45;;;;;;;6.43;3.30;;;;;;;;;;4968515;29;20213;-83
2022/09/04 02:39:33;;;;;;;6.65;3.28;;;;;;;;;;4968425;29;20023;-82
2022/09/04 02:42:26;;;;;;;8.95;3.30;;;;;;;;;;4967705;29;20027;-79
2022/09/04 02:45:17;;;;;;;5.28;3.13;;;;;;;;;;4968420;29;20023;-83
2022/09/04 02:47:45;;;;;;;5.32;3.10;;;;;;;;;;4951215;29;20031;-81
2022/09/04 02:50:48;;;;;;;6.65;3.22;;;;;;;;;;4951153;29;20030;-79
2022/09/04 02:53:25;;;;;;;8.30;3.40;;;;;;;;;;4968437;29;20339;-81
2022/09/04 02:56:15;;;;;;;6.60;3.05;;;;;;;;;;4967925;29;20196;-81
2022/09/04 02:58:50;;;;;;;5.97;3.75;;;;;;;;;;4950902;29;20049;-80
2022/09/04 03:01:21;;;;;;;7.93;3.80;;;;;;;;;;4968066;29;20094;-80
2022/09/04 03:04:11;;;;;;;6.28;3.80;;;;;;;;;;4968108;29;20031;-83
2022/09/04 03:06:47;;;;;;;6.00;3.63;;;;;;;;;;4967728;28;20128;-83
2022/09/04 03:09:39;;;;;;;7.75;3.90;;;;;;;;;;4950836;29;20235;-82
2022/09/04 03:12:33;;;;;;;6.20;3.65;;;;;;;;;;4967814;29;20150;-80
2022/09/04 03:15:28;;;;;;;6.22;3.60;;;;;;;;;;4967588;28;20058;-82
2022/09/04 03:17:57;;;;;;;6.73;3.83;;;;;;;;;;4966712;29;20058;-82
2022/09/04 03:20:26;;;;;;;5.55;3.45;;;;;;;;;;4967692;29;20019;-83
2022/09/04 03:23:14;;;;;;;5.05;3.60;;;;;;;;;;4967747;29;20030;-83
2022/09/04 03:25:49;;;;;;;5.63;3.60;;;;;;;;;;4967584;29;20027;-82
2022/09/04 03:28:27;;;;;;;6.57;3.50;;;;;;;;;;4967819;29;20337;-82
2022/09/04 03:30:55;;;;;;;6.05;3.65;;;;;;;;;;4950273;29;20082;-82
2022/09/04 03:33:37;;;;;;;7.93;3.92;;;;;;;;;;4966580;29;20038;-82
2022/09/04 03:36:14;;;;;;;9.43;4.10;;;;;;;;;;4967438;29;20027;-80
2022/09/04 03:39:01;;;;;;;7.70;3.88;;;;;;;;;;4950588;29;20031;-82
2022/09/04 03:41:41;;;;;;;7.05;3.47;;;;;;;;;;4967234;29;20023;-79
2022/09/04 03:44:21;;;;;;;6.15;3.50;;;;;;;;;;4966698;29;20027;-82
2022/09/04 03:47:14;;;;;;;6.15;3.38;;;;;;;;;;4967195;29;20038;-82
2022/09/04 03:49:56;;;;;;;6.85;3.50;;;;;;;;;;4949898;29;20038;-82
2022/09/04 03:52:40;;;;;;;6.07;3.50;;;;;;;;;;4967010;29;20028;-82
2022/09/04 03:55:20;;;;;;;5.20;3.30;;;;;;;;;;4966293;29;20038;-82
2022/09/04 03:57:57;;;;;;;6.47;3.38;;;;;;;;;;4967052;29;20035;-82
2022/09/04 04:00:23;;;;;;;52.00;6.15;;;;;;;;;;4967183;29;20322;-83
2022/09/04 04:03:06;;;;;;;14.70;3.80;;;;;;;;;;4966763;29;20031;-82
2022/09/04 04:05:35;;;;;;;37.65;4.50;;;;;;;;;;4966861;29;20327;-79
2022/09/04 04:08:10;;;;;;;20.48;4.28;;;;;;;;;;4949807;29;20079;-83
2022/09/04 04:10:59;;;;;;;11.50;3.55;;;;;;;;;;4966809;29;20039;-81
2022/09/04 04:13:45;;;;;;;13.38;3.70;;;;;;;;;;4966877;29;20033;-80
2022/09/04 04:16:25;;;;;;;;;;;;;;;;;;4965967;28;20035;-81
2022/09/04 04:19:32;;;;;;;8.57;3.53;;;;;;;;;;4966458;29;20098;-82
2022/09/04 04:22:25;;;;;;;7.45;4.00;;;;;;;;;;4948718;29;20027;-83
2022/09/04 04:25:23;;;;;;;6.75;3.75;;;;;;;;;;4966630;29;20034;-82
2022/09/04 04:28:18;;;;;;;6.35;3.65;;;;;;;;;;4949418;29;20330;-80
2022/09/04 04:30:54;;;;;;;6.82;3.53;;;;;;;;;;4965647;29;20030;-83
2022/09/04 04:33:57;;;;;;;5.80;3.42;;;;;;;;;;4966371;29;20089;-82
2022/09/04 04:36:35;;;;;;;7.30;3.60;;;;;;;;;;4943912;29;20027;-81
2022/09/04 04:39:25;;;;;;;5.25;3.42;;;;;;;;;;4966164;29;20027;-81
2022/09/04 04:42:16;;;;;;;7.35;3.58;;;;;;;;;;4965386;29;20045;-82
2022/09/04 04:48:20;;;;;;;8.02;3.80;;;;;;;;;;4966459;29;20070;-82
2022/09/04 04:51:04;;;;;;;7.97;3.88;;;;;;;;;;4949148;29;20051;-82
2022/09/04 04:53:58;;;;;;;10.93;3.88;;;;;;;;;;4966213;29;20027;-82
2022/09/04 04:56:53;;;;;;;5.43;3.45;;;;;;;;;;4921758;29;20110;-82
2022/09/04 04:59:24;;;;;;;6.68;3.63;;;;;;;;;;4953395;28;20361;-82
2022/09/04 05:02:20;;;;;;;5.90;3.42;;;;;;;;;;4966187;29;20038;-82
2022/09/04 05:05:16;;;;;;;5.97;3.30;;;;;;;;;;4966270;29;20030;-81
2022/09/04 05:08:19;;;;;;;6.00;3.60;;;;;;;;;;4966069;29;20027;-83
2022/09/04 05:10:55;;;;;;;6.68;3.50;;;;;;;;;;4966023;29;20027;-82
2022/09/04 05:13:35;;;;;;;6.00;3.33;;;;;;;;;;4965955;29;20034;-82
2022/09/04 05:16:25;;;;;;;6.05;3.50;;;;;;;;;;4965928;29;20023;-82
2022/09/04 05:19:00;;;;;;;7.43;3.80;;;;;;;;;;4964879;29;20054;-83
2022/09/04 05:21:55;;;;;;;8.07;3.53;;;;;;;;;;4965955;29;20219;-83
2022/09/04 05:25:06;;;;;;;9.77;3.60;;;;;;;;;;4965841;29;20053;-83
2022/09/04 05:27:46;;;;;;;10.00;3.90;;;;;;;;;;4965672;29;20249;-83
2022/09/04 05:30:18;;;;;;;6.40;3.78;;;;;;;;;;4965775;29;20071;-82
2022/09/04 05:32:49;;;;;;;11.93;3.83;;;;;;;;;;4965432;29;20338;-83
2022/09/04 05:35:23;;;;;;;6.15;3.63;;;;;;;;;;4948321;29;20031;-83
2022/09/04 05:38:06;;;;;;;5.75;3.97;;;;;;;;;;4965641;29;20019;-83
2022/09/04 05:40:57;;;;;;;7.38;3.60;;;;;;;;;;4948604;29;20034;-83
2022/09/04 05:43:28;;;;;;;9.00;3.58;;;;;;;;;;4948569;29;20031;-83
2022/09/04 05:46:03;;;;;;;12.00;3.40;;;;;;;;;;4948488;29;20031;-84
2022/09/04 05:49:08;;;;;;;9.25;3.42;;;;;;;;;;4965648;29;20031;-83
2022/09/04 05:52:05;;;;;;;8.45;3.28;;;;;;;;;;4965453;29;20211;-82
2022/09/04 05:54:55;;;;;;;6.13;3.40;;;;;;;;;;4965702;29;20038;-83
2022/09/04 05:57:27;;;;;;;4.75;3.30;;;;;;;;;;4965608;29;20027;-82
2022/09/04 06:00:05;;;;;;;7.55;3.40;;;;;;;;;;4965590;29;20330;-81
2022/09/04 06:02:39;;;;;;;6.78;3.33;;;;;;;;;;4965502;29;20218;-81
2022/09/04 06:05:17;;;;;;;7.70;4.00;;;;;;;;;;4965404;29;20051;-82
2022/09/04 06:08:17;;;;;;;5.05;3.53;;;;;;;;;;4965443;29;20070;-83
2022/09/04 06:11:11;;;;;;;6.68;3.80;;;;;;;;;;4965488;29;20059;-82
2022/09/04 06:13:36;;;;;;;7.22;3.40;;;;;;;;;;4948380;29;20247;-79
2022/09/04 06:16:15;;;;;;;12.13;3.80;;;;;;;;;;4965477;29;20038;-79
2022/09/04 06:18:46;;;;;;;6.90;4.00;;;;;;;;;;4965211;29;20275;-81
2022/09/04 06:21:30;;;;;;;6.53;3.35;;;;;;;;;;4948213;29;20023;-82
2022/09/04 06:24:24;;;;;;;7.90;3.42;;;;;;;;;;4965282;29;20031;-80
2022/09/04 06:27:15;;;;;;;5.95;3.30;;;;;;;;;;4952535;28;20326;-83
2022/09/04 06:30:07;;;;;;;6.85;3.40;;;;;;;;;;4965230;29;20042;-82
2022/09/04 06:33:11;;;;;;;5.45;3.50;;;;;;;;;;4965232;29;20087;-79
2022/09/04 06:35:59;;;;;;;8.02;3.60;;;;;;;;;;4948158;29;20096;-81
2022/09/04 06:39:16;;;;;;;5.38;3.38;;;;;;;;;;4948157;29;20031;-82
2022/09/04 06:42:01;;;;;;;7.70;3.80;;;;;;;;;;4927853;29;20035;-82
2022/09/04 06:45:03;;;;;;;7.50;3.80;;;;;;;;;;4968556;29;20030;-83
2022/09/04 06:48:02;;;;;;;8.43;3.80;;;;;;;;;;4951178;29;20102;-79
2022/09/04 06:50:51;;;;;;;8.48;3.80;;;;;;;;;;4968527;29;20019;-80
2022/09/04 06:53:49;;;;;;;12.40;3.70;;;;;;;;;;4953053;29;20152;-84
2022/09/04 06:56:26;;;;;;;5.97;3.30;;;;;;;;;;4968427;29;20427;-82
2022/09/04 06:59:00;;;;;;;6.80;3.42;;;;;;;;;;4968139;29;20027;-82
2022/09/04 07:01:45;;;;;;;7.63;3.50;;;;;;;;;;4968182;29;20019;-82
2022/09/04 07:04:25;;;;;;;7.78;3.70;;;;;;;;;;4951179;29;20019;-83
2022/09/04 07:07:09;;;;;;;9.82;3.75;;;;;;;;;;4968214;29;20019;-83
2022/09/04 07:09:45;;;;;;;5.82;3.40;;;;;;;;;;4967643;29;20111;-82
2022/09/04 07:12:39;;;;;;;4.85;3.30;;;;;;;;;;4967957;29;20327;-80
2022/09/04 07:15:38;;;;;;;11.25;3.30;;;;;;;;;;4968023;29;20079;-82
2022/09/04 07:18:29;;;;;;;6.43;3.35;;;;;;;;;;4967874;29;20035;-80
2022/09/04 07:21:28;;;;;;;6.07;3.20;;;;;;;;;;4967941;29;20045;-80
2022/09/04 07:24:10;;;;;;;6.85;3.20;;;;;;;;;;4967915;29;20035;-82
2022/09/04 07:26:50;;;;;;;8.23;3.40;;;;;;;;;;4967842;29;20031;-83
2022/09/04 07:29:40;;;;;;;6.45;3.20;;;;;;;;;;4967913;29;20094;-79
2022/09/04 07:32:48;;;;;;;6.45;3.10;;;;;;;;;;4950533;29;20031;-82
2022/09/04 07:35:38;;;;;;;5.22;3.03;;;;;;;;;;4967578;29;20027;-79
2022/09/04 07:38:16;;;;;;;4.88;2.70;;;;;;;;;;4950387;29;20042;-80
2022/09/04 07:40:47;;;;;;;5.47;2.90;;;;;;;;;;4967605;29;20086;-85
2022/09/04 07:43:32;;;;;;;6.78;3.10;;;;;;;;;;4967516;29;20031;-85
2022/09/04 07:46:04;;;;;;;6.20;2.90;;;;;;;;;;4967456;29;20095;-80
2022/09/04 07:48:54;;;;;;;13.63;3.00;;;;;;;;;;4950312;29;20054;-81
2022/09/04 07:51:34;;;;;;;5.80;3.20;;;;;;;;;;4966658;28;20050;-82
2022/09/04 07:54:07;;;;;;;6.75;3.13;;;;;;;;;;4967372;29;20038;-82
2022/09/04 07:56:53;;;;;;;8.93;3.10;;;;;;;;;;4950216;29;20034;-81
2022/09/04 07:59:24;;;;;;;5.60;3.00;;;;;;;;;;4967198;29;20023;-80
2022/09/04 08:02:27;;;;;;;5.60;3.13;;;;;;;;;;4950075;29;20031;-84
2022/09/04 08:04:55;;;;;;;6.13;3.10;;;;;;;;;;4967130;29;20029;-84
2022/09/04 08:07:41;;;;;;;4.85;2.90;;;;;;;;;;4967044;29;20030;-81
2022/09/04 08:10:31;;;;;;;9.57;3.10;;;;;;;;;;4966507;28;20238;-82
2022/09/04 08:13:05;;;;;;;6.97;3.00;;;;;;;;;;4966806;29;20035;-80
2022/09/04 08:15:50;;;;;;;7.60;3.17;;;;;;;;;;4966973;29;20136;-83
2022/09/04 08:18:35;;;;;;;6.85;3.20;;;;;;;;;;4966796;29;20098;-84
2022/09/04 08:21:36;;;;;;;6.13;2.92;;;;;;;;;;4949743;29;20323;-84
2022/09/04 08:24:40;;;;;;;8.10;2.92;;;;;;;;;;4966705;29;20061;-84
2022/09/04 08:27:48;;;;;;;5.90;3.00;;;;;;;;;;4951637;29;20042;-86
2022/09/04 08:30:18;;;;;;;6.28;2.70;;;;;;;;;;4949533;29;20102;-84
2022/09/04 08:33:01;;;;;;;7.80;2.70;;;;;;;;;;4966746;29;20034;-85
2022/09/04 08:35:33;;;;;;;6.75;3.00;;;;;;;;;;4966505;29;20116;-84
2022/09/04 08:38:14;;;;;;;6.03;2.78;;;;;;;;;;4966548;29;20019;-82
2022/09/04 08:40:49;;;;;;;7.95;3.15;;;;;;;;;;4966462;29;20050;-82
2022/09/04 08:43:20;;;;;;;;;;;;;;;;;;4966901;29;20026;-84
2022/09/04 08:46:07;;;;;;;5.18;2.50;;;;;;;;;;4949484;29;19911;-82
2022/09/04 08:49:19;;;;;;;6.32;3.00;;;;;;;;;;4966211;29;20039;-86
2022/09/04 08:51:56;;;;;;;8.55;2.65;;;;;;;;;;4966280;29;20065;-85
2022/09/04 08:54:43;;;;;;;6.40;2.70;;;;;;;;;;4966193;29;20026;-85
2022/09/04 08:57:17;;;;;;;6.22;2.50;;;;;;;;;;4966246;29;20027;-85
2022/09/04 09:00:00;;;;;;;5.53;2.40;;;;;;;;;;4948719;29;20390;-86
2022/09/04 09:03:28;;;;;;;4.75;2.50;;;;;;;;;;4965787;28;20066;-84
2022/09/04 09:06:12;;;;;;;4.95;2.60;;;;;;;;;;4949835;29;20038;-86
2022/09/04 09:09:07;;;;;;;5.45;2.78;;;;;;;;;;4966019;29;20219;-84
2022/09/04 09:11:52;;;;;;;6.18;2.70;;;;;;;;;;4881555;29;20041;-85
2022/09/04 09:14:48;;;;;;;8.18;2.60;;;;;;;;;;4966100;29;20090;-83
2022/09/04 09:17:22;;;;;;;5.72;2.33;;;;;;;;;;4965857;29;20063;-83
2022/09/04 09:19:59;;;;;;;5.22;2.80;;;;;;;;;;4949708;29;20027;-84
2022/09/04 09:23:01;;;;;;;5.85;2.70;;;;;;;;;;4965864;29;20027;-84
2022/09/04 09:26:07;;;;;;;5.65;2.30;;;;;;;;;;4965866;29;20227;-84
2022/09/04 09:29:15;;;;;;;7.50;2.60;;;;;;;;;;4930881;29;20043;-84
2022/09/04 09:32:05;;;;;;;5.53;2.20;;;;;;;;;;4965672;29;20027;-84
2022/09/04 09:34:58;;;;;;;7.00;2.55;;;;;;;;;;4965673;29;20026;-84
2022/09/04 09:37:41;;;;;;;7.22;2.55;;;;;;;;;;4965575;29;20031;-84
2022/09/04 09:40:06;;;;;;;5.53;2.22;;;;;;;;;;4948638;29;20054;-84
2022/09/04 09:43:20;;;;;;;5.85;2.40;;;;;;;;;;4965686;29;20023;-85
2022/09/04 09:46:01;;;;;;;4.32;2.20;;;;;;;;;;4957603;29;20066;-83
2022/09/04 09:49:04;;;;;;;4.13;2.10;;;;;;;;;;4965418;29;20019;-83
2022/09/04 09:52:09;;;;;;;5.10;2.20;;;;;;;;;;4948652;29;20034;-85
2022/09/04 09:55:02;;;;;;;3.70;2.00;;;;;;;;;;4931826;29;20039;-82
2022/09/04 09:57:37;;;;;;;5.18;2.13;;;;;;;;;;4965524;29;20034;-87
2022/09/04 10:00:12;;;;;;;4.03;2.40;;;;;;;;;;4948522;29;20027;-83
2022/09/04 10:03:08;;;;;;;2.83;1.90;;;;;;;;;;4965613;29;20024;-84
2022/09/04 10:06:08;;;;;;;5.80;2.25;;;;;;;;;;4948370;29;20036;-82
2022/09/04 10:09:01;;;;;;;4.47;2.20;;;;;;;;;;4965558;29;20023;-81
2022/09/04 10:11:37;;;;;;;4.25;2.20;;;;;;;;;;4965230;29;20035;-84
2022/09/04 10:14:36;;;;;;;4.05;2.05;;;;;;;;;;4965388;28;20251;-83
2022/09/04 10:17:14;;;;;;;5.05;1.90;;;;;;;;;;4969288;29;20023;-82
2022/09/04 10:20:11;;;;;;;7.10;2.20;;;;;;;;;;4969123;29;20027;-84
2022/09/04 10:22:36;;;;;;;4.68;2.08;;;;;;;;;;4951824;29;20031;-83
2022/09/04 10:25:22;;;;;;;3.80;1.90;;;;;;;;;;4952186;29;20163;-84
2022/09/04 10:28:20;;;;;;;3.75;2.40;;;;;;;;;;4951780;29;20375;-81
2022/09/04 10:31:26;;;;;;;4.15;2.10;;;;;;;;;;4968697;29;20031;-85
2022/09/04 10:34:22;;;;;;;6.05;2.17;;;;;;;;;;4924157;29;20039;-84
2022/09/04 10:37:22;;;;;;;4.15;2.55;;;;;;;;;;4969024;29;20082;-86
2022/09/04 10:42:52;;;;;;;5.53;2.13;;;;;;;;;;4968763;29;20333;-83
2022/09/04 10:45:37;;;;;;;4.90;2.00;;;;;;;;;;4968806;29;20038;-82
2022/09/04 10:48:09;;;;;;;4.00;1.92;;;;;;;;;;4968622;29;20051;-83
2022/09/04 10:50:56;;;;;;;4.28;2.00;;;;;;;;;;4951401;29;20027;-83
2022/09/04 10:53:42;;;;;;;4.88;2.35;;;;;;;;;;4968363;29;20027;-82
2022/09/04 10:56:35;;;;;;;4.78;2.10;;;;;;;;;;4951286;29;20260;-83
2022/09/04 10:59:32;;;;;;;4.45;2.10;;;;;;;;;;4968388;29;20043;-82
2022/09/04 11:02:16;;;;;;;5.22;2.10;;;;;;;;;;4915648;29;20263;-91
2022/09/04 11:05:00;;;;;;;5.00;2.20;;;;;;;;;;4951057;29;20023;-82
2022/09/04 11:07:39;;;;;;;4.35;2.22;;;;;;;;;;4968215;29;20091;-87
2022/09/04 11:10:16;;;;;;;4.38;2.08;;;;;;;;;;4968140;29;20030;-84
2022/09/04 11:13:26;;;;;;;4.25;2.22;;;;;;;;;;4968204;29;20094;-86
2022/09/04 11:16:11;;;;;;;5.22;2.35;;;;;;;;;;4950685;29;20023;-88
2022/09/04 11:18:52;;;;;;;4.20;2.10;;;;;;;;;;4967775;29;20047;-84
2022/09/04 11:21:19;;;;;;;5.22;2.20;;;;;;;;;;4951191;29;20122;-86
2022/09/04 11:24:06;;;;;;;4.55;2.15;;;;;;;;;;4950509;29;20038;-83
2022/09/04 11:27:09;;;;;;;4.07;2.10;;;;;;;;;;4967712;28;20027;-85
2022/09/04 11:29:46;;;;;;;4.38;2.00;;;;;;;;;;4967772;29;20038;-85
2022/09/04 11:32:42;;;;;;;7.05;2.22;;;;;;;;;;4950595;29;20053;-85
2022/09/04 11:35:23;;;;;;;5.70;2.10;;;;;;;;;;4967645;29;20031;-90
2022/09/04 11:38:27;;;;;;;4.32;2.22;;;;;;;;;;4967483;29;20033;-79
2022/09/04 11:41:20;;;;;;;5.03;2.00;;;;;;;;;;4968432;29;20033;-86
2022/09/04 11:44:17;;;;;;;3.60;2.08;;;;;;;;;;4967615;29;20029;-85
2022/09/04 11:47:07;;;;;;;5.70;2.30;;;;;;;;;;4914793;29;20078;-87
2022/09/04 11:49:55;;;;;;;5.82;2.10;;;;;;;;;;4967464;29;20378;-83
2022/09/04 11:52:27;;;;;;;4.05;2.17;;;;;;;;;;4967194;29;20035;-87
2022/09/04 11:55:30;;;;;;;7.05;2.55;;;;;;;;;;4967324;29;20019;-88
2022/09/04 11:58:17;;;;;;;5.43;2.30;;;;;;;;;;4932570;29;20035;-89
2022/09/04 12:01:08;;;;;;;3.65;2.30;;;;;;;;;;4967822;29;20023;-86
2022/09/04 12:03:51;;;;;;;3.95;2.30;;;;;;;;;;4967269;29;20027;-85
2022/09/04 12:06:49;;;;;;;3.63;2.10;;;;;;;;;;4949960;29;20027;-86
2022/09/04 12:09:27;;;;;;;4.40;2.10;;;;;;;;;;4967252;29;20074;-84
2022/09/04 12:12:15;;;;;;;5.32;2.30;;;;;;;;;;4967030;29;20062;-85
2022/09/04 12:14:46;;;;;;;4.45;2.20;;;;;;;;;;4966948;29;20019;-83
2022/09/04 12:17:39;;;;;;;4.82;2.25;;;;;;;;;;4966874;29;20110;-83
2022/09/04 12:20:23;;;;;;;3.58;2.20;;;;;;;;;;4966926;29;20027;-86
2022/09/04 12:23:26;;;;;;;3.40;2.15;;;;;;;;;;4966927;29;20043;-85
2022/09/04 12:26:25;;;;;;;4.05;2.10;;;;;;;;;;4949589;29;20031;-87
2022/09/04 12:29:22;;;;;;;4.18;2.20;;;;;;;;;;4966728;29;20031;-88
2022/09/04 12:32:14;;;;;;;4.95;2.20;;;;;;;;;;4930221;29;20039;-88
2022/09/04 12:35:18;;;;;;;3.67;2.08;;;;;;;;;;4966533;29;20315;-85
2022/09/04 12:38:25;;;;;;;4.80;2.20;;;;;;;;;;4961626;28;20235;-88
2022/09/04 12:41:15;;;;;;;5.45;2.30;;;;;;;;;;4966722;29;20023;-90
2022/09/04 12:44:00;;;;;;;4.97;2.10;;;;;;;;;;4966343;29;20067;-86
2022/09/04 12:46:38;;;;;;;;;;;;;;;;;;4966805;29;20338;-90
2022/09/04 12:49:44;;;;;;;3.92;2.10;;;;;;;;;;4966261;29;19974;-88
2022/09/04 12:52:24;;;;;;;4.25;2.03;;;;;;;;;;4966208;29;20031;-86
2022/09/04 12:55:29;;;;;;;3.60;2.00;;;;;;;;;;4966344;29;20058;-89
2022/09/04 12:58:12;;;;;;;2.85;2.00;;;;;;;;;;4966149;29;20031;-84
2022/09/04 13:01:07;;;;;;;3.03;1.90;;;;;;;;;;4966086;29;20127;-87
2022/09/04 13:03:44;;;;;;;3.93;2.00;;;;;;;;;;4957544;28;20036;-86
2022/09/04 13:06:28;;;;;;;2.95;1.85;;;;;;;;;;4966044;29;20082;-83
2022/09/04 13:09:24;;;;;;;3.53;2.00;;;;;;;;;;4966418;29;20025;-86
2022/09/04 13:11:49;;;;;;;;;;;;;;;;;;4966479;29;20034;-82
2022/09/04 13:14:30;;;;;;;2.90;1.90;;;;;;;;;;4966015;29;20165;-86
2022/09/04 13:17:01;;;;;;;6.72;2.00;;;;;;;;;;4965804;29;20581;-86
2022/09/04 13:19:48;;;;;;;4.25;1.90;;;;;;;;;;4965909;29;20082;-87
2022/09/04 13:22:41;;;;;;;4.35;1.90;;;;;;;;;;4965921;29;20024;-89
2022/09/04 13:25:26;;;;;;;4.68;1.88;;;;;;;;;;4965833;29;20094;-87
2022/09/04 13:27:56;;;;;;;2.92;1.80;;;;;;;;;;4966075;29;20034;-89
2022/09/04 13:30:24;;;;;;;4.75;1.98;;;;;;;;;;4965774;29;20274;-83
2022/09/04 13:33:14;;;;;;;3.95;1.95;;;;;;;;;;4965668;29;20031;-87
2022/09/04 13:36:06;;;;;;;6.03;1.95;;;;;;;;;;4965705;29;20035;-80
2022/09/04 13:39:06;;;;;;;2.88;1.90;;;;;;;;;;4965709;29;20027;-79
2022/09/04 13:41:54;;;;;;;4.28;1.80;;;;;;;;;;4948601;29;20031;-80
2022/09/04 13:44:49;;;;;;;3.83;1.90;;;;;;;;;;4965745;29;20027;-77
2022/09/04 13:47:23;;;;;;;4.07;1.88;;;;;;;;;;4965700;29;20155;-79
2022/09/04 13:50:07;;;;;;;3.42;1.73;;;;;;;;;;4966403;28;20034;-80
2022/09/04 13:52:50;;;;;;;5.25;1.90;;;;;;;;;;4969766;29;20050;-81
2022/09/04 13:55:26;;;;;;;3.92;1.90;;;;;;;;;;4969597;29;20023;-79
2022/09/04 13:58:09;;;;;;;2.35;1.80;;;;;;;;;;4969544;29;20105;-79
2022/09/04 14:00:44;;;;;;;3.03;1.83;;;;;;;;;;4969542;29;20042;-86
2022/09/04 14:03:11;;;;;;;;;;;;;;;;;;4969741;29;20027;-79
2022/09/04 14:05:37;;;;;;;4.45;1.90;;;;;;;;;;4969360;29;19942;-78
2022/09/04 14:08:05;;;;;;;4.10;1.80;;;;;;;;;;4969571;29;20031;-82
2022/09/04 14:10:45;;;;;;;4.63;1.80;;;;;;;;;;4969180;29;20026;-79
2022/09/04 14:13:21;;;;;;;2.92;1.90;;;;;;;;;;4969101;29;20031;-80
2022/09/04 14:16:12;;;;;;;3.47;1.90;;;;;;;;;;4969144;29;20078;-80
2022/09/04 14:19:02;;;;;;;5.90;1.85;;;;;;;;;;4957788;29;20365;-78
2022/09/04 14:22:01;;;;;;;4.22;2.00;;;;;;;;;;4969117;29;20023;-87
2022/09/04 14:24:31;;;;;;;4.63;1.77;;;;;;;;;;4969108;29;20027;-79
2022/09/04 14:27:12;;;;;;;3.00;1.63;;;;;;;;;;4969002;29;20199;-79
2022/09/04 14:29:46;;;;;;;3.28;1.80;;;;;;;;;;4968826;29;20027;-80
2022/09/04 14:32:30;;;;;;;3.33;1.80;;;;;;;;;;4968752;29;20374;-82
2022/09/04 14:35:33;;;;;;;3.70;1.77;;;;;;;;;;4968813;29;20049;-88
2022/09/04 14:38:12;;;;;;;3.85;1.75;;;;;;;;;;4948924;28;20251;-83
2022/09/04 14:40:55;;;;;;;4.68;1.90;;;;;;;;;;4968885;29;20034;-81
2022/09/04 14:44:02;;;;;;;4.22;2.00;;;;;;;;;;4968687;29;20274;-83
2022/09/04 14:46:54;;;;;;;3.83;1.80;;;;;;;;;;4959831;28;20039;-80
2022/09/04 14:49:26;;;;;;;5.07;1.90;;;;;;;;;;4968432;29;20027;-81
2022/09/04 14:51:55;;;;;;;3.92;1.92;;;;;;;;;;4968578;29;20023;-77
2022/09/04 14:54:35;;;;;;;2.70;1.80;;;;;;;;;;4969106;29;20027;-86
2022/09/04 14:57:29;;;;;;;3.05;1.90;;;;;;;;;;4968551;29;20031;-80
2022/09/04 15:00:08;;;;;;;3.78;2.15;;;;;;;;;;4959498;28;20034;-79
2022/09/04 15:02:50;;;;;;;2.83;2.00;;;;;;;;;;4967803;29;20098;-89
2022/09/04 15:05:21;;;;;;;3.78;2.00;;;;;;;;;;4968192;29;20078;-86
2022/09/04 15:07:56;;;;;;;3.42;2.03;;;;;;;;;;4968103;29;20086;-81
2022/09/04 15:10:40;;;;;;;;;;;;;;;;;;4968764;29;20026;-84
2022/09/04 15:13:33;;;;;;;3.92;1.90;;;;;;;;;;4968205;29;19910;-79
2022/09/04 15:16:10;;;;;;;6.90;2.20;;;;;;;;;;4967971;29;20036;-79
2022/09/04 15:18:40;;;;;;;3.95;2.22;;;;;;;;;;4967696;29;20054;-91
2022/09/04 15:21:43;;;;;;;4.80;2.00;;;;;;;;;;4967985;29;20023;-82
2022/09/04 15:24:15;;;;;;;3.13;1.77;;;;;;;;;;4968075;29;20019;-84
2022/09/04 15:26:47;;;;;;;3.20;1.90;;;;;;;;;;4967856;29;20023;-85
2022/09/04 15:29:46;;;;;;;2.85;1.88;;;;;;;;;;4967941;29;20094;-89
2022/09/04 15:32:24;;;;;;;3.80;1.90;;;;;;;;;;4946898;28;20043;-87
2022/09/04 15:35:25;;;;;;;3.17;1.95;;;;;;;;;;4967770;29;20034;-88
2022/09/04 15:38:03;;;;;;;6.72;1.92;;;;;;;;;;4967422;28;20023;-84
2022/09/04 15:40:34;;;;;;;4.93;2.00;;;;;;;;;;4967609;29;20016;-89
2022/09/04 15:43:18;;;;;;;2.65;1.70;;;;;;;;;;4967644;29;20027;-89
2022/09/04 15:45:52;;;;;;;3.63;1.80;;;;;;;;;;4967633;29;20110;-86
2022/09/04 15:48:37;;;;;;;3.35;1.80;;;;;;;;;;4967481;29;20024;-87
2022/09/04 15:51:10;;;;;;;2.60;1.60;;;;;;;;;;4967469;29;20019;-86
2022/09/04 15:53:39;;;;;;;2.85;1.77;;;;;;;;;;4967299;29;20098;-90
2022/09/04 15:56:09;;;;;;;3.33;1.80;;;;;;;;;;4967440;29;20023;-87
2022/09/04 15:58:51;;;;;;;4.20;2.00;;;;;;;;;;4967201;29;20029;-86
2022/09/04 16:01:23;;;;;;;3.28;1.80;;;;;;;;;;4967231;29;20027;-84
2022/09/04 16:04:11;;;;;;;3.28;1.90;;;;;;;;;;4967216;29;20058;-86
2022/09/04 16:06:48;;;;;;;6.80;1.75;;;;;;;;;;4967474;29;20250;-85
2022/09/04 16:09:36;;;;;;;3.08;1.80;;;;;;;;;;4967235;29;20042;-89
2022/09/04 16:12:16;;;;;;;3.28;1.80;;;;;;;;;;4966561;28;20055;-87
2022/09/04 16:14:58;;;;;;;3.40;1.83;;;;;;;;;;4966673;29;20081;-84
2022/09/04 16:17:27;;;;;;;2.95;2.03;;;;;;;;;;4967012;29;20239;-86
2022/09/04 16:20:09;;;;;;;3.70;1.90;;;;;;;;;;4966981;29;20023;-88
2022/09/04 16:22:45;;;;;;;2.67;1.83;;;;;;;;;;4966914;29;20023;-86
2022/09/04 16:25:23;;;;;;;3.78;1.85;;;;;;;;;;4966760;29;20056;-86
2022/09/04 16:27:53;;;;;;;3.72;1.77;;;;;;;;;;4966563;29;20038;-84
2022/09/04 16:30:43;;;;;;;2.63;1.70;;;;;;;;;;4966530;29;20019;-86
2022/09/04 16:33:21;;;;;;;2.47;1.70;;;;;;;;;;4966339;29;20035;-84
2022/09/04 16:35:49;;;;;;;3.85;1.80;;;;;;;;;;4966300;29;20027;-85
2022/09/04 16:38:20;;;;;;;2.78;1.80;;;;;;;;;;4966206;29;20023;-83